Time;durP1;ratioP1;P1;durP2;ratioP2;P2;SDS_P1;SDS_P2;PMS_P1;PMS_P2;Temp;Humidity;BMP_temperature;BMP_pressure;BME280_temperature;BME280_humidity;BME280_pressure;Samples;Min_cycle;Max_cycle;Signal;HPM_P1;HPM_P2
2022/06/07 00:00:41;;;;;;;15.68;10.02;;;;;;;;;;5072920;28;20189;-75
2022/06/07 00:03:07;;;;;;;16.35;10.77;;;;;;;;;;5070729;28;20048;-76
2022/06/07 00:05:33;;;;;;;16.90;10.82;;;;;;;;;;5070061;28;20052;-76
2022/06/07 00:07:59;;;;;;;16.52;11.10;;;;;;;;;;5071815;28;20036;-76
2022/06/07 00:10:25;;;;;;;17.77;11.35;;;;;;;;;;5069703;28;20137;-76
2022/06/07 00:12:52;;;;;;;15.60;12.20;;;;;;;;;;5056881;28;20044;-76
2022/06/07 00:15:18;;;;;;;15.98;12.52;;;;;;;;;;5055998;28;20040;-76
2022/06/07 00:17:45;;;;;;;18.27;13.07;;;;;;;;;;5067658;28;20127;-76
2022/06/07 00:20:11;;;;;;;21.83;13.82;;;;;;;;;;5074433;28;20048;-75
2022/06/07 00:22:37;;;;;;;19.33;14.88;;;;;;;;;;5076750;28;20071;-76
2022/06/07 00:25:05;;;;;;;20.27;13.88;;;;;;;;;;5075180;28;20066;-74
2022/06/07 00:27:31;;;;;;;18.40;14.05;;;;;;;;;;5074888;28;20040;-75
2022/06/07 00:29:57;;;;;;;19.45;15.05;;;;;;;;;;5080182;28;20126;-76
2022/06/07 00:32:24;;;;;;;18.10;14.70;;;;;;;;;;5075910;28;20040;-76
2022/06/07 00:34:50;;;;;;;19.55;16.20;;;;;;;;;;5059080;28;20061;-75
2022/06/07 00:37:16;;;;;;;19.30;16.17;;;;;;;;;;5063190;28;20071;-76
2022/06/07 00:39:42;;;;;;;18.80;15.88;;;;;;;;;;5058366;28;20063;-75
2022/06/07 00:42:09;;;;;;;20.35;16.60;;;;;;;;;;5073909;28;20562;-75
2022/06/07 00:44:41;;;;;;;21.35;17.65;;;;;;;;;;5067948;28;20053;-76
2022/06/07 00:47:27;;;;;;;20.13;17.13;;;;;;;;;;5073180;28;20045;-75
2022/06/07 00:49:56;;;;;;;23.35;16.75;;;;;;;;;;5075099;28;20131;-75
2022/06/07 00:52:24;;;;;;;23.67;17.85;;;;;;;;;;5085239;28;20052;-75
2022/06/07 00:54:50;;;;;;;19.52;17.48;;;;;;;;;;5075325;28;20115;-76
2022/06/07 00:57:16;;;;;;;18.20;15.98;;;;;;;;;;5065969;28;20103;-76
2022/06/07 00:59:42;;;;;;;19.58;16.67;;;;;;;;;;5070562;28;20044;-75
2022/06/07 01:02:08;;;;;;;21.13;17.05;;;;;;;;;;5068030;28;20044;-75
2022/06/07 01:04:35;;;;;;;17.48;15.57;;;;;;;;;;5070371;28;20044;-75
2022/06/07 01:12:35;;;;;;;15.65;13.73;;;;;;;;;;5060404;28;20127;-76
2022/06/07 01:15:03;;;;;;;16.95;14.55;;;;;;;;;;5068678;28;20055;-76
2022/06/07 01:17:29;;;;;;;17.40;14.52;;;;;;;;;;5078422;28;20052;-75
2022/06/07 01:19:55;;;;;;;18.98;14.23;;;;;;;;;;5057787;28;20037;-75
2022/06/07 01:22:21;;;;;;;17.42;14.70;;;;;;;;;;5066843;28;20056;-75
2022/06/07 01:24:47;;;;;;;17.75;15.55;;;;;;;;;;5061207;28;20040;-77
2022/06/07 01:27:14;;;;;;;20.23;15.93;;;;;;;;;;5071400;28;20045;-75
2022/06/07 01:29:42;;;;;;;17.50;14.95;;;;;;;;;;5064530;28;20430;-76
2022/06/07 01:32:08;;;;;;;17.52;15.70;;;;;;;;;;5090042;28;20044;-76
2022/06/07 01:34:34;;;;;;;18.25;15.30;;;;;;;;;;5073543;28;20309;-76
2022/06/07 01:37:01;;;;;;;18.40;16.10;;;;;;;;;;5071368;28;20052;-76
2022/06/07 01:42:13;;;;;;;18.10;15.40;;;;;;;;;;5055376;28;20048;-74
2022/06/07 01:44:43;;;;;;;18.75;16.95;;;;;;;;;;5063009;28;20055;-75
2022/06/07 01:47:12;;;;;;;18.33;16.53;;;;;;;;;;5074421;28;20057;-75
2022/06/07 01:49:38;;;;;;;18.13;16.33;;;;;;;;;;5073881;28;20060;-75
2022/06/07 01:52:05;;;;;;;17.85;15.40;;;;;;;;;;5074611;28;20091;-75
2022/06/07 01:54:31;;;;;;;16.40;14.55;;;;;;;;;;5068584;28;20040;-75
2022/06/07 01:56:57;;;;;;;16.55;14.73;;;;;;;;;;5073556;28;20052;-75
2022/06/07 01:59:23;;;;;;;17.40;14.93;;;;;;;;;;5064430;28;20041;-75
2022/06/07 02:01:50;;;;;;;19.00;15.05;;;;;;;;;;5067265;28;20494;-75
2022/06/07 02:04:17;;;;;;;16.85;13.82;;;;;;;;;;5060065;28;20444;-76
2022/06/07 02:06:43;;;;;;;16.98;13.43;;;;;;;;;;5071684;28;20044;-75
2022/06/07 02:09:10;;;;;;;17.80;13.65;;;;;;;;;;5063798;28;20120;-76
2022/06/07 02:11:37;;;;;;;16.20;14.02;;;;;;;;;;5054526;28;20037;-75
2022/06/07 02:14:04;;;;;;;15.07;13.27;;;;;;;;;;5072376;28;20527;-75
2022/06/07 02:16:31;;;;;;;17.90;14.15;;;;;;;;;;5058377;28;20124;-75
2022/06/07 02:18:57;;;;;;;15.43;13.15;;;;;;;;;;5064256;28;20530;-75
2022/06/07 02:21:23;;;;;;;18.40;12.73;;;;;;;;;;5060838;28;20045;-75
2022/06/07 02:23:49;;;;;;;16.50;13.55;;;;;;;;;;5054177;28;20048;-75
2022/06/07 02:26:24;;;;;;;16.10;13.23;;;;;;;;;;5064717;28;20126;-75
2022/06/07 02:28:53;;;;;;;18.05;13.73;;;;;;;;;;5067600;28;20048;-75
2022/06/07 02:31:19;;;;;;;15.60;13.75;;;;;;;;;;5072093;28;20528;-75
2022/06/07 02:33:46;;;;;;;17.30;14.15;;;;;;;;;;5070902;28;20048;-75
2022/06/07 02:36:12;;;;;;;16.25;13.80;;;;;;;;;;5070238;28;20391;-75
2022/06/07 02:38:39;;;;;;;16.25;14.02;;;;;;;;;;5058359;28;20490;-75
2022/06/07 02:41:08;;;;;;;16.38;12.80;;;;;;;;;;5072641;28;20052;-75
2022/06/07 02:43:34;;;;;;;17.42;14.70;;;;;;;;;;5069582;28;20121;-75
2022/06/07 02:46:00;;;;;;;16.58;13.98;;;;;;;;;;5060113;28;20044;-76
2022/06/07 02:48:26;;;;;;;17.45;13.77;;;;;;;;;;5063692;28;20044;-74
2022/06/07 02:50:52;;;;;;;16.05;14.07;;;;;;;;;;5065182;28;20045;-75
2022/06/07 02:53:19;;;;;;;16.63;13.38;;;;;;;;;;5053875;28;20167;-75
2022/06/07 02:55:45;;;;;;;17.63;14.68;;;;;;;;;;5059133;28;20403;-75
2022/06/07 02:58:11;;;;;;;15.05;13.18;;;;;;;;;;5071541;28;20051;-75
2022/06/07 03:00:37;;;;;;;17.55;12.93;;;;;;;;;;5071092;28;20499;-76
2022/06/07 03:03:03;;;;;;;17.48;14.23;;;;;;;;;;5074971;28;20047;-76
2022/06/07 03:05:29;;;;;;;17.80;14.05;;;;;;;;;;5072566;28;20051;-74
2022/06/07 03:07:55;;;;;;;19.90;13.25;;;;;;;;;;5064905;28;20120;-74
2022/06/07 03:10:22;;;;;;;15.57;13.27;;;;;;;;;;5070423;28;20045;-75
2022/06/07 03:12:48;;;;;;;18.42;13.63;;;;;;;;;;5070118;28;20048;-74
2022/06/07 03:15:14;;;;;;;19.60;14.38;;;;;;;;;;5072109;28;20036;-75
2022/06/07 03:17:40;;;;;;;20.75;14.52;;;;;;;;;;5070058;28;20063;-75
2022/06/07 03:20:07;;;;;;;17.48;14.60;;;;;;;;;;5055871;28;20045;-75
2022/06/07 03:22:34;;;;;;;16.95;13.73;;;;;;;;;;5053546;28;20045;-75
2022/06/07 03:25:05;;;;;;;16.45;14.25;;;;;;;;;;5051578;28;20057;-74
2022/06/07 03:27:36;;;;;;;19.85;14.60;;;;;;;;;;5055716;28;20424;-74
2022/06/07 03:30:09;;;;;;;21.00;15.13;;;;;;;;;;5062565;28;20048;-74
2022/06/07 03:32:35;;;;;;;16.90;14.18;;;;;;;;;;5070707;28;20431;-75
2022/06/07 03:35:01;;;;;;;19.00;13.90;;;;;;;;;;5068643;28;20069;-75
2022/06/07 03:37:27;;;;;;;19.92;15.13;;;;;;;;;;5068003;28;20036;-74
2022/06/07 03:39:54;;;;;;;16.17;13.63;;;;;;;;;;5063433;28;20083;-74
2022/06/07 03:42:20;;;;;;;16.65;14.25;;;;;;;;;;5071953;28;20090;-75
2022/06/07 03:44:48;;;;;;;16.05;13.98;;;;;;;;;;5072382;28;20086;-74
2022/06/07 03:47:15;;;;;;;20.88;14.60;;;;;;;;;;5071816;28;20045;-74
2022/06/07 03:49:41;;;;;;;21.08;14.95;;;;;;;;;;5065859;28;20071;-75
2022/06/07 03:52:07;;;;;;;19.27;14.88;;;;;;;;;;5059305;28;20120;-74
2022/06/07 03:54:33;;;;;;;18.10;14.88;;;;;;;;;;5053696;28;20060;-75
2022/06/07 03:56:59;;;;;;;21.08;15.70;;;;;;;;;;5064952;28;20045;-75
2022/06/07 03:59:27;;;;;;;18.13;14.80;;;;;;;;;;5065866;28;20121;-76
2022/06/07 04:01:53;;;;;;;18.17;14.98;;;;;;;;;;5058987;28;20510;-75
2022/06/07 04:04:19;;;;;;;17.80;15.55;;;;;;;;;;5072160;28;20127;-75
2022/06/07 04:09:31;;;;;;;20.92;16.38;;;;;;;;;;5061134;28;20045;-76
2022/06/07 04:11:57;;;;;;;18.77;15.40;;;;;;;;;;5052911;28;20045;-76
2022/06/07 04:14:23;;;;;;;19.70;16.42;;;;;;;;;;5067684;28;20471;-76
2022/06/07 04:16:49;;;;;;;19.90;16.63;;;;;;;;;;5071931;28;20503;-75
2022/06/07 04:19:15;;;;;;;18.67;14.88;;;;;;;;;;5074750;28;20075;-76
2022/06/07 04:21:42;;;;;;;20.52;15.93;;;;;;;;;;5056678;28;20041;-74
2022/06/07 04:24:08;;;;;;;19.65;15.40;;;;;;;;;;5056734;28;20135;-75
2022/06/07 04:26:34;;;;;;;20.38;15.77;;;;;;;;;;5056840;28;20041;-75
2022/06/07 04:29:00;;;;;;;17.63;14.55;;;;;;;;;;5063411;28;20625;-75
2022/06/07 04:31:27;;;;;;;20.10;15.63;;;;;;;;;;5072236;28;20040;-75
2022/06/07 04:33:57;;;;;;;17.27;14.23;;;;;;;;;;5076338;28;20102;-75
2022/06/07 04:36:24;;;;;;;20.60;15.33;;;;;;;;;;5074984;28;20425;-75
2022/06/07 04:38:51;;;;;;;18.45;14.50;;;;;;;;;;5070402;28;20506;-76
2022/06/07 04:41:18;;;;;;;18.38;15.13;;;;;;;;;;5068243;28;20403;-75
2022/06/07 04:43:44;;;;;;;18.60;14.38;;;;;;;;;;5061798;28;20059;-75
2022/06/07 04:46:14;;;;;;;18.02;14.25;;;;;;;;;;5079411;28;20044;-75
2022/06/07 04:48:41;;;;;;;19.42;14.95;;;;;;;;;;5064864;28;20109;-75
2022/06/07 04:51:11;;;;;;;19.90;14.82;;;;;;;;;;5056256;28;20049;-75
2022/06/07 04:53:38;;;;;;;17.83;13.60;;;;;;;;;;5055939;28;20045;-76
2022/06/07 04:56:11;;;;;;;17.85;13.43;;;;;;;;;;5056246;28;20514;-76
2022/06/07 04:58:37;;;;;;;19.52;14.50;;;;;;;;;;5061836;28;20413;-75
2022/06/07 05:01:15;;;;;;;18.67;14.80;;;;;;;;;;5068051;28;20037;-75
2022/06/07 05:03:41;;;;;;;17.38;13.73;;;;;;;;;;5055805;28;20525;-75
2022/06/07 05:06:24;;;;;;;17.20;14.02;;;;;;;;;;5065507;28;20502;-75
2022/06/07 05:08:51;;;;;;;18.10;13.63;;;;;;;;;;5068218;28;20170;-74
2022/06/07 05:11:18;;;;;;;18.33;14.60;;;;;;;;;;5059360;28;20174;-75
2022/06/07 05:13:44;;;;;;;20.13;14.18;;;;;;;;;;5075177;28;20445;-75
2022/06/07 05:16:10;;;;;;;19.15;14.18;;;;;;;;;;5074353;28;20102;-75
2022/06/07 05:18:36;;;;;;;18.58;14.18;;;;;;;;;;5072457;28;20079;-76
2022/06/07 05:21:06;;;;;;;20.02;14.23;;;;;;;;;;5071670;28;20555;-76
2022/06/07 05:23:33;;;;;;;20.38;15.48;;;;;;;;;;5064751;28;20118;-75
2022/06/07 05:26:01;;;;;;;18.52;14.80;;;;;;;;;;5055638;28;20486;-75
2022/06/07 05:28:28;;;;;;;19.10;15.63;;;;;;;;;;5078878;28;20044;-75
2022/06/07 05:30:54;;;;;;;18.50;15.63;;;;;;;;;;5075577;28;20053;-75
2022/06/07 05:33:20;;;;;;;23.05;15.50;;;;;;;;;;5066152;28;20045;-75
2022/06/07 05:35:46;;;;;;;19.27;14.82;;;;;;;;;;5060902;28;20090;-75
2022/06/07 05:38:12;;;;;;;18.20;13.85;;;;;;;;;;5070958;28;20041;-75
2022/06/07 05:40:38;;;;;;;18.08;14.30;;;;;;;;;;5074168;28;20040;-74
2022/06/07 05:43:04;;;;;;;18.30;14.38;;;;;;;;;;5065550;28;20483;-75
2022/06/07 05:45:31;;;;;;;21.38;15.35;;;;;;;;;;5087713;28;20047;-75
2022/06/07 05:47:57;;;;;;;18.52;15.02;;;;;;;;;;5072462;28;20103;-75
2022/06/07 05:50:25;;;;;;;19.50;15.13;;;;;;;;;;5054878;28;20048;-74
2022/06/07 05:52:52;;;;;;;19.80;14.63;;;;;;;;;;5058159;28;20041;-75
2022/06/07 05:55:18;;;;;;;16.67;13.55;;;;;;;;;;5074831;28;20453;-75
2022/06/07 05:57:49;;;;;;;18.95;14.48;;;;;;;;;;5072498;28;20424;-75
2022/06/07 06:00:16;;;;;;;18.83;13.75;;;;;;;;;;5072228;28;20044;-75
2022/06/07 06:02:42;;;;;;;17.92;13.88;;;;;;;;;;5065419;28;20040;-74
2022/06/07 06:05:08;;;;;;;18.83;14.45;;;;;;;;;;5059751;28;20041;-75
2022/06/07 06:07:34;;;;;;;18.83;14.18;;;;;;;;;;5056803;28;20103;-75
2022/06/07 06:12:45;;;;;;;22.67;14.70;;;;;;;;;;5061957;28;20049;-75
2022/06/07 06:15:11;;;;;;;20.40;14.13;;;;;;;;;;5065186;28;20048;-76
2022/06/07 06:17:37;;;;;;;17.95;14.70;;;;;;;;;;5059438;28;20048;-75
2022/06/07 06:20:03;;;;;;;19.60;14.45;;;;;;;;;;5056783;28;20077;-75
2022/06/07 06:22:29;;;;;;;18.25;14.10;;;;;;;;;;5065025;28;20033;-75
2022/06/07 06:24:56;;;;;;;20.55;13.93;;;;;;;;;;5071529;28;20045;-74
2022/06/07 06:27:22;;;;;;;20.50;14.50;;;;;;;;;;5058179;28;20049;-75
2022/06/07 06:29:48;;;;;;;18.58;13.60;;;;;;;;;;5059102;28;20037;-75
2022/06/07 06:32:14;;;;;;;18.98;14.05;;;;;;;;;;5059097;28;20045;-75
2022/06/07 06:34:40;;;;;;;18.25;13.35;;;;;;;;;;5064367;28;20138;-75
2022/06/07 06:37:06;;;;;;;19.30;14.30;;;;;;;;;;5063627;28;20079;-76
2022/06/07 06:39:33;;;;;;;20.08;13.15;;;;;;;;;;5068775;28;20591;-76
2022/06/07 06:41:59;;;;;;;16.90;13.02;;;;;;;;;;5055116;28;20434;-77
2022/06/07 06:44:25;;;;;;;21.52;14.45;;;;;;;;;;5059699;28;20053;-76
2022/06/07 06:46:52;;;;;;;19.63;14.88;;;;;;;;;;5060215;28;20045;-75
2022/06/07 06:49:18;;;;;;;19.52;14.77;;;;;;;;;;5086693;28;20045;-75
2022/06/07 06:51:47;;;;;;;19.48;15.05;;;;;;;;;;5062806;28;20720;-74
2022/06/07 06:54:14;;;;;;;18.45;14.82;;;;;;;;;;5052826;28;20045;-74
2022/06/07 06:56:40;;;;;;;22.20;15.82;;;;;;;;;;5055238;28;20384;-73
2022/06/07 06:59:06;;;;;;;22.25;15.70;;;;;;;;;;5062883;28;20045;-74
2022/06/07 07:01:34;;;;;;;19.95;16.20;;;;;;;;;;5068889;28;20115;-76
2022/06/07 07:04:01;;;;;;;23.98;17.27;;;;;;;;;;5067866;28;20044;-75
2022/06/07 07:06:27;;;;;;;19.45;15.40;;;;;;;;;;5066356;28;20106;-76
2022/06/07 07:08:55;;;;;;;16.92;13.43;;;;;;;;;;5057594;28;20495;-79
2022/06/07 07:11:21;;;;;;;20.20;14.82;;;;;;;;;;5067644;28;20123;-75
2022/06/07 07:13:47;;;;;;;18.95;12.07;;;;;;;;;;5056962;28;20053;-75
2022/06/07 07:16:15;;;;;;;17.40;13.60;;;;;;;;;;5061698;28;20051;-75
2022/06/07 07:18:42;;;;;;;19.60;13.88;;;;;;;;;;5063037;28;20040;-74
2022/06/07 07:21:11;;;;;;;21.23;15.02;;;;;;;;;;5056075;28;20056;-75
2022/06/07 07:23:38;;;;;;;18.88;14.13;;;;;;;;;;5060875;28;20048;-75
2022/06/07 07:26:08;;;;;;;23.55;13.75;;;;;;;;;;5063499;28;20044;-77
2022/06/07 07:28:35;;;;;;;18.60;14.35;;;;;;;;;;5065305;28;20069;-74
2022/06/07 07:31:03;;;;;;;21.00;13.27;;;;;;;;;;5054483;28;20033;-75
2022/06/07 07:33:29;;;;;;;22.00;13.95;;;;;;;;;;5055249;28;20106;-75
2022/06/07 07:35:56;;;;;;;21.05;13.63;;;;;;;;;;5057211;28;20116;-75
2022/06/07 07:38:23;;;;;;;22.63;13.98;;;;;;;;;;5064028;28;20045;-74
2022/06/07 07:40:50;;;;;;;20.58;13.82;;;;;;;;;;5059979;28;20052;-77
2022/06/07 07:43:16;;;;;;;20.02;13.98;;;;;;;;;;5078540;28;20099;-76
2022/06/07 07:45:42;;;;;;;19.95;13.77;;;;;;;;;;5082065;28;20067;-74
2022/06/07 07:48:09;;;;;;;26.42;12.93;;;;;;;;;;5077753;28;20029;-75
2022/06/07 07:50:36;;;;;;;17.35;11.32;;;;;;;;;;5054659;28;20441;-76
2022/06/07 07:53:02;;;;;;;15.57;11.70;;;;;;;;;;5058061;28;20053;-75
2022/06/07 07:55:29;;;;;;;18.35;8.48;;;;;;;;;;5064105;28;20491;-76
2022/06/07 07:57:55;;;;;;;16.70;8.20;;;;;;;;;;5058049;28;20235;-75
2022/06/07 08:00:21;;;;;;;24.20;7.78;;;;;;;;;;5077322;28;20502;-74
2022/06/07 08:02:47;;;;;;;15.52;7.47;;;;;;;;;;5076806;28;20044;-77
2022/06/07 08:05:14;;;;;;;13.10;6.72;;;;;;;;;;5062954;28;20107;-74
2022/06/07 08:07:40;;;;;;;12.52;6.50;;;;;;;;;;5056675;28;20076;-73
2022/06/07 08:10:06;;;;;;;15.38;7.20;;;;;;;;;;5062936;28;20041;-75
2022/06/07 08:12:32;;;;;;;18.55;8.02;;;;;;;;;;5070722;28;20125;-75
2022/06/07 08:14:59;;;;;;;12.05;6.90;;;;;;;;;;5076154;28;20040;-74
2022/06/07 08:17:26;;;;;;;10.38;6.70;;;;;;;;;;5077340;28;20367;-75
2022/06/07 08:19:52;;;;;;;15.50;6.97;;;;;;;;;;5058680;28;20048;-75
2022/06/07 08:22:19;;;;;;;18.27;7.07;;;;;;;;;;5073759;28;20051;-75
2022/06/07 08:24:45;;;;;;;11.48;6.40;;;;;;;;;;5078441;28;20079;-75
2022/06/07 08:27:11;;;;;;;18.35;6.90;;;;;;;;;;5083956;28;20045;-74
2022/06/07 08:29:38;;;;;;;15.48;6.63;;;;;;;;;;5092391;28;20029;-74
2022/06/07 08:32:04;;;;;;;17.10;6.90;;;;;;;;;;5077818;28;20041;-75
2022/06/07 08:37:33;;;;;;;27.10;7.50;;;;;;;;;;5064664;28;20088;-77
2022/06/07 08:40:00;;;;;;;21.67;6.80;;;;;;;;;;5063902;28;20036;-74
2022/06/07 08:42:29;;;;;;;17.00;6.70;;;;;;;;;;5072058;28;20092;-74
2022/06/07 08:44:56;;;;;;;16.15;7.15;;;;;;;;;;5068831;28;20376;-76
2022/06/07 08:47:41;;;;;;;22.90;6.97;;;;;;;;;;5067954;28;20045;-77
2022/06/07 08:50:27;;;;;;;23.02;7.43;;;;;;;;;;5068689;28;20097;-77
2022/06/07 08:52:58;;;;;;;15.48;7.93;;;;;;;;;;5067564;28;20068;-75
2022/06/07 08:55:31;;;;;;;24.67;8.27;;;;;;;;;;5071587;28;20057;-77
2022/06/07 08:57:58;;;;;;;21.35;8.30;;;;;;;;;;5068714;28;20033;-75
2022/06/07 09:00:36;;;;;;;18.08;8.40;;;;;;;;;;5063827;28;20049;-76
2022/06/07 09:03:25;;;;;;;16.48;8.15;;;;;;;;;;5062517;28;20120;-76
2022/06/07 09:05:53;;;;;;;26.25;8.38;;;;;;;;;;5060557;28;20522;-77
2022/06/07 09:08:19;;;;;;;21.60;8.98;;;;;;;;;;5071401;28;20044;-76
2022/06/07 09:13:34;;;;;;;17.77;8.57;;;;;;;;;;5080704;28;20598;-75
2022/06/07 09:16:00;;;;;;;19.95;8.73;;;;;;;;;;5076589;28;20080;-75
2022/06/07 09:18:28;;;;;;;19.27;8.75;;;;;;;;;;5076085;28;20036;-75
2022/06/07 09:20:57;;;;;;;19.60;9.25;;;;;;;;;;5066903;28;20560;-76
2022/06/07 09:23:32;;;;;;;19.80;9.23;;;;;;;;;;5068183;28;20446;-75
2022/06/07 09:26:18;;;;;;;18.23;8.55;;;;;;;;;;5063889;28;20064;-76
2022/06/07 09:28:45;;;;;;;15.40;8.30;;;;;;;;;;5072621;28;20037;-76
2022/06/07 09:31:13;;;;;;;24.02;9.25;;;;;;;;;;5075805;28;20044;-74
2022/06/07 09:33:49;;;;;;;17.80;9.35;;;;;;;;;;5071729;28;20500;-76
2022/06/07 09:36:20;;;;;;;26.05;10.82;;;;;;;;;;5070847;28;20055;-76
2022/06/07 09:38:55;;;;;;;22.13;9.70;;;;;;;;;;5070845;28;20040;-77
2022/06/07 09:41:37;;;;;;;25.63;10.45;;;;;;;;;;5080670;28;20048;-74
2022/06/07 09:44:06;;;;;;;20.00;9.30;;;;;;;;;;5078213;28;20139;-77
2022/06/07 09:46:32;;;;;;;18.70;9.48;;;;;;;;;;5082930;28;20100;-75
2022/06/07 09:48:58;;;;;;;21.25;10.00;;;;;;;;;;5092132;28;20155;-75
2022/06/07 09:51:27;;;;;;;26.45;10.35;;;;;;;;;;5084699;28;20072;-77
2022/06/07 09:53:56;;;;;;;19.38;10.27;;;;;;;;;;5073596;28;20147;-80
2022/06/07 09:56:35;;;;;;;19.05;10.45;;;;;;;;;;5074572;28;20080;-76
2022/06/07 09:59:07;;;;;;;26.38;10.98;;;;;;;;;;5057283;28;20048;-76
2022/06/07 10:01:38;;;;;;;45.70;11.30;;;;;;;;;;5071051;28;20052;-77
2022/06/07 10:04:04;;;;;;;36.72;10.35;;;;;;;;;;5073499;28;20041;-78
2022/06/07 10:06:31;;;;;;;66.43;10.80;;;;;;;;;;5073474;28;20083;-78
2022/06/07 10:09:07;;;;;;;28.33;9.98;;;;;;;;;;5076965;28;20048;-76
2022/06/07 10:11:33;;;;;;;151.93;15.70;;;;;;;;;;5074497;28;20048;-77
2022/06/07 10:13:59;;;;;;;41.40;9.68;;;;;;;;;;5074011;28;20045;-76
2022/06/07 10:16:48;;;;;;;46.05;9.57;;;;;;;;;;5071013;28;20032;-75
2022/06/07 10:19:21;;;;;;;29.83;9.23;;;;;;;;;;5067719;28;20057;-76
2022/06/07 10:21:59;;;;;;;42.03;8.18;;;;;;;;;;5073268;28;20464;-76
2022/06/07 10:24:28;;;;;;;18.35;7.50;;;;;;;;;;5072318;28;20036;-76
2022/06/07 10:27:19;;;;;;;28.38;7.47;;;;;;;;;;5071419;28;20499;-77
2022/06/07 10:30:04;;;;;;;22.05;7.53;;;;;;;;;;5079013;28;20059;-76
2022/06/07 10:32:49;;;;;;;17.73;6.50;;;;;;;;;;5064864;28;20049;-76
2022/06/07 10:35:15;;;;;;;18.15;7.10;;;;;;;;;;5065754;28;20036;-76
2022/06/07 10:38:03;;;;;;;15.93;6.47;;;;;;;;;;5059618;28;20049;-76
2022/06/07 10:40:41;;;;;;;16.30;5.93;;;;;;;;;;5066328;28;20051;-74
2022/06/07 10:43:24;;;;;;;11.57;6.97;;;;;;;;;;5074558;28;20071;-76
2022/06/07 10:45:54;;;;;;;12.48;6.03;;;;;;;;;;5058113;28;20403;-76
2022/06/07 10:48:20;;;;;;;9.73;5.45;;;;;;;;;;5078049;28;20394;-76
2022/06/07 10:50:49;;;;;;;10.88;5.70;;;;;;;;;;5045448;28;20423;-77
2022/06/07 10:53:15;;;;;;;12.32;5.88;;;;;;;;;;5054507;28;20106;-77
2022/06/07 10:55:47;;;;;;;11.25;5.13;;;;;;;;;;5064009;28;20049;-76
2022/06/07 10:58:30;;;;;;;10.77;5.45;;;;;;;;;;5104539;28;20045;-76
2022/06/07 11:01:04;;;;;;;11.52;5.72;;;;;;;;;;5061383;28;20086;-76
2022/06/07 11:03:39;;;;;;;13.23;5.40;;;;;;;;;;5073252;28;20063;-76
2022/06/07 11:11:42;;;;;;;12.32;5.35;;;;;;;;;;5053762;28;20131;-76
2022/06/07 11:14:28;;;;;;;12.70;4.80;;;;;;;;;;5054360;28;20439;-76
2022/06/07 11:17:07;;;;;;;12.63;5.00;;;;;;;;;;5062207;28;20052;-76
2022/06/07 11:19:33;;;;;;;10.88;5.40;;;;;;;;;;5065918;28;20115;-74
2022/06/07 11:22:02;;;;;;;11.00;5.38;;;;;;;;;;5074647;28;20056;-75
2022/06/07 11:24:35;;;;;;;13.70;5.93;;;;;;;;;;5057302;28;20525;-75
2022/06/07 11:27:04;;;;;;;10.45;5.18;;;;;;;;;;5061414;28;20098;-75
2022/06/07 11:29:31;;;;;;;13.00;5.47;;;;;;;;;;5060132;28;20098;-75
2022/06/07 11:31:58;;;;;;;14.23;6.05;;;;;;;;;;5053828;28;20045;-76
2022/06/07 11:34:33;;;;;;;13.23;6.28;;;;;;;;;;5053283;28;20548;-75
2022/06/07 11:37:22;;;;;;;11.13;5.85;;;;;;;;;;5073445;28;20054;-75
2022/06/07 11:39:57;;;;;;;11.85;5.90;;;;;;;;;;5072418;28;20052;-76
2022/06/07 11:42:34;;;;;;;11.95;5.80;;;;;;;;;;5071550;28;20077;-76
2022/06/07 11:45:06;;;;;;;13.77;5.50;;;;;;;;;;5054322;28;20036;-76
2022/06/07 11:47:45;;;;;;;13.23;6.10;;;;;;;;;;5052573;28;20063;-76
2022/06/07 11:50:14;;;;;;;12.95;5.78;;;;;;;;;;5053850;28;20079;-75
2022/06/07 11:52:56;;;;;;;9.82;5.68;;;;;;;;;;5053627;28;20048;-76
2022/06/07 11:55:23;;;;;;;11.82;5.72;;;;;;;;;;5061281;28;20047;-76
2022/06/07 11:57:56;;;;;;;11.02;5.35;;;;;;;;;;5073286;28;20118;-75
2022/06/07 12:00:22;;;;;;;11.52;5.45;;;;;;;;;;5067540;28;20080;-75
2022/06/07 12:03:08;;;;;;;10.90;5.60;;;;;;;;;;5072360;28;20120;-75
2022/06/07 12:05:43;;;;;;;10.85;5.88;;;;;;;;;;5064500;28;20048;-76
2022/06/07 12:08:28;;;;;;;11.85;6.22;;;;;;;;;;5073008;28;20055;-76
2022/06/07 12:11:03;;;;;;;9.05;5.00;;;;;;;;;;5072226;28;20105;-77
2022/06/07 12:13:54;;;;;;;7.80;4.22;;;;;;;;;;5073242;28;20453;-76
2022/06/07 12:16:31;;;;;;;6.57;3.70;;;;;;;;;;5072974;28;20055;-75
2022/06/07 12:18:57;;;;;;;7.45;3.78;;;;;;;;;;5071113;28;20123;-76
2022/06/07 12:21:24;;;;;;;7.90;3.42;;;;;;;;;;5064850;28;20045;-76
2022/06/07 12:23:52;;;;;;;6.15;3.33;;;;;;;;;;5072359;28;20454;-76
2022/06/07 12:26:18;;;;;;;7.00;3.05;;;;;;;;;;5070717;28;20045;-76
2022/06/07 12:28:50;;;;;;;6.63;2.63;;;;;;;;;;5071333;28;20490;-76
2022/06/07 12:31:24;;;;;;;6.13;2.88;;;;;;;;;;5071794;28;20383;-76
2022/06/07 12:33:52;;;;;;;7.30;3.38;;;;;;;;;;5071544;28;20049;-76
2022/06/07 12:36:20;;;;;;;6.88;3.60;;;;;;;;;;5069875;28;20127;-76
2022/06/07 12:38:48;;;;;;;7.07;3.60;;;;;;;;;;5053219;28;20052;-76
2022/06/07 12:41:15;;;;;;;9.57;3.92;;;;;;;;;;5061201;28;20588;-76
2022/06/07 12:43:52;;;;;;;8.60;4.40;;;;;;;;;;5075252;28;20052;-76
2022/06/07 12:46:23;;;;;;;8.55;3.78;;;;;;;;;;5073095;28;20440;-76
2022/06/07 12:48:49;;;;;;;8.32;3.70;;;;;;;;;;5068419;28;20040;-76
2022/06/07 12:51:30;;;;;;;9.07;3.65;;;;;;;;;;5075811;28;20040;-76
2022/06/07 12:54:16;;;;;;;12.27;3.72;;;;;;;;;;5063796;28;20053;-75
2022/06/07 12:56:44;;;;;;;9.40;3.90;;;;;;;;;;5087149;28;20172;-75
2022/06/07 12:59:16;;;;;;;8.40;3.60;;;;;;;;;;5073798;28;20052;-75
2022/06/07 13:01:42;;;;;;;5.82;3.35;;;;;;;;;;5076805;28;20048;-76
2022/06/07 13:04:20;;;;;;;6.85;3.38;;;;;;;;;;5063149;28;20037;-77
2022/06/07 13:06:58;;;;;;;7.57;3.05;;;;;;;;;;5055642;28;20049;-76
2022/06/07 13:09:24;;;;;;;6.78;2.85;;;;;;;;;;5067617;28;20049;-76
2022/06/07 13:11:50;;;;;;;7.35;2.42;;;;;;;;;;5075439;28;20041;-75
2022/06/07 13:14:17;;;;;;;8.20;2.40;;;;;;;;;;5075495;28;20052;-76
2022/06/07 13:16:46;;;;;;;7.07;2.70;;;;;;;;;;5074102;28;20048;-76
2022/06/07 13:19:15;;;;;;;8.35;3.10;;;;;;;;;;5075470;28;20127;-76
2022/06/07 13:21:59;;;;;;;11.70;3.40;;;;;;;;;;5074386;28;20510;-76
2022/06/07 13:24:29;;;;;;;10.20;2.88;;;;;;;;;;5072039;28;20071;-76
2022/06/07 13:26:58;;;;;;;7.88;2.83;;;;;;;;;;5075810;28;20125;-76
2022/06/07 13:29:29;;;;;;;8.18;2.55;;;;;;;;;;5075141;28;20072;-76
2022/06/07 13:31:55;;;;;;;8.23;2.47;;;;;;;;;;5070401;28;20051;-76
2022/06/07 13:34:27;;;;;;;9.25;2.92;;;;;;;;;;5087408;28;20052;-75
2022/06/07 13:37:00;;;;;;;7.50;2.85;;;;;;;;;;5054984;28;20053;-75
2022/06/07 13:39:27;;;;;;;9.82;3.88;;;;;;;;;;5098529;28;20082;-75
2022/06/07 13:41:54;;;;;;;9.00;3.30;;;;;;;;;;5064657;28;20051;-75
2022/06/07 13:44:32;;;;;;;9.23;3.53;;;;;;;;;;5065257;28;20075;-75
2022/06/07 13:47:00;;;;;;;7.43;3.30;;;;;;;;;;5056664;28;20053;-76
2022/06/07 13:54:59;;;;;;;8.55;3.13;;;;;;;;;;5055243;28;20053;-76
2022/06/07 13:57:25;;;;;;;8.77;3.30;;;;;;;;;;5071001;28;20486;-77
2022/06/07 13:59:51;;;;;;;9.48;3.80;;;;;;;;;;5072515;28;20068;-76
2022/06/07 14:02:18;;;;;;;8.48;3.33;;;;;;;;;;5062632;28;20465;-76
2022/06/07 14:04:44;;;;;;;8.35;3.83;;;;;;;;;;5054315;28;20057;-76
2022/06/07 14:07:14;;;;;;;9.93;4.00;;;;;;;;;;5054101;28;20043;-76
2022/06/07 14:09:41;;;;;;;10.02;4.50;;;;;;;;;;5059267;28;20044;-77
2022/06/07 14:12:08;;;;;;;10.50;5.00;;;;;;;;;;5069455;28;20049;-77
2022/06/07 14:14:35;;;;;;;8.82;4.65;;;;;;;;;;5064359;28;20091;-75
2022/06/07 14:17:04;;;;;;;8.38;4.20;;;;;;;;;;5056799;28;20072;-76
2022/06/07 14:19:34;;;;;;;7.68;3.70;;;;;;;;;;5065588;28;20048;-76
2022/06/07 14:22:09;;;;;;;8.23;3.50;;;;;;;;;;5075783;28;20041;-76
2022/06/07 14:24:35;;;;;;;7.15;3.30;;;;;;;;;;5059701;28;20121;-76
2022/06/07 14:27:01;;;;;;;7.55;3.60;;;;;;;;;;5070718;28;20514;-76
2022/06/07 14:29:27;;;;;;;9.98;3.88;;;;;;;;;;5061329;28;20040;-75
2022/06/07 14:31:53;;;;;;;8.32;3.63;;;;;;;;;;5072106;28;20395;-75
2022/06/07 14:34:21;;;;;;;8.50;3.50;;;;;;;;;;5064237;28;20040;-75
2022/06/07 14:36:48;;;;;;;7.70;3.50;;;;;;;;;;5078616;28;20153;-75
2022/06/07 14:39:22;;;;;;;10.52;4.00;;;;;;;;;;5069865;28;20179;-75
2022/06/07 14:41:48;;;;;;;9.25;3.78;;;;;;;;;;5069514;28;20556;-75
2022/06/07 14:44:15;;;;;;;7.70;3.42;;;;;;;;;;5075724;28;20080;-76
2022/06/07 14:46:42;;;;;;;8.63;4.10;;;;;;;;;;5093152;28;20445;-75
2022/06/07 14:49:16;;;;;;;9.02;4.28;;;;;;;;;;5072326;28;20048;-76
2022/06/07 14:51:43;;;;;;;8.88;3.55;;;;;;;;;;5052496;28;20120;-76
2022/06/07 14:54:19;;;;;;;10.13;4.20;;;;;;;;;;5085889;28;20053;-75
2022/06/07 14:56:47;;;;;;;11.63;4.30;;;;;;;;;;5053734;28;20056;-75
2022/06/07 14:59:14;;;;;;;8.20;3.95;;;;;;;;;;5054216;28;20052;-75
2022/06/07 15:01:40;;;;;;;9.82;4.00;;;;;;;;;;5062733;28;20059;-75
2022/06/07 15:04:08;;;;;;;10.10;4.13;;;;;;;;;;5099725;28;20097;-74
2022/06/07 15:06:40;;;;;;;12.32;4.25;;;;;;;;;;5073839;28;20040;-75